createdAt,value
2023-05-24T00:02:14.020Z,100948.13
2023-05-24T00:04:42.138Z,100961.28
2023-05-24T00:07:10.174Z,100976.56
2023-05-24T00:09:38.934Z,100987.06
2023-05-24T00:12:10.303Z,101003.03
2023-05-24T00:14:37.289Z,101017.69
2023-05-24T00:17:04.856Z,101030.78
2023-05-24T00:19:32.257Z,101025.16
2023-05-24T00:21:59.927Z,101037.09
2023-05-24T00:24:27.016Z,101054.88
2023-05-24T00:26:54.045Z,101070.84
2023-05-24T00:29:21.315Z,101085.31
2023-05-24T00:31:48.494Z,101089.09
2023-05-24T00:34:15.648Z,101099.06
2023-05-24T00:36:45.258Z,101100.53
2023-05-24T00:39:12.185Z,101120.84
2023-05-24T00:41:39.875Z,101121.81
2023-05-24T00:44:07.222Z,101120.97
2023-05-24T00:46:35.490Z,101130.78
2023-05-24T00:49:03.974Z,101135.63
2023-05-24T00:51:33.304Z,101137.63
2023-05-24T00:54:00.791Z,101149.41
2023-05-24T00:56:31.568Z,101160.56
2023-05-24T00:58:58.987Z,101165.53
2023-05-24T01:01:26.138Z,101175.34
2023-05-24T01:03:54.761Z,101172.75
2023-05-24T01:06:22.289Z,101172.22
2023-05-24T01:09:27.678Z,101175.03
2023-05-24T01:12:12.908Z,101190.69
2023-05-24T01:14:50.533Z,101199.03
2023-05-24T01:17:31.486Z,101201.63
2023-05-24T01:20:10.462Z,101209.75
2023-05-24T01:22:47.889Z,101215.09
2023-05-24T01:25:51.790Z,101210.59
2023-05-24T01:28:19.585Z,101215.16
2023-05-24T01:30:47.399Z,101215.16
2023-05-24T01:33:14.979Z,101217.06
2023-05-24T01:35:43.067Z,101213.19
2023-05-24T01:38:13.278Z,101222.94
2023-05-24T01:40:41.409Z,101224.06
2023-05-24T01:43:41.008Z,101232.13
2023-05-24T01:46:33.479Z,101223.44
2023-05-24T01:49:21.107Z,101224.56
2023-05-24T01:52:01.901Z,101227.69
2023-05-24T01:54:32.691Z,101227.97
2023-05-24T01:57:00.388Z,101230.50
2023-05-24T01:59:31.178Z,101251.78
2023-05-24T02:02:00.868Z,101563.25
2023-05-24T02:04:30.593Z,101568.13
2023-05-24T02:06:57.417Z,101581.53
2023-05-24T02:09:24.255Z,101584.78
2023-05-24T02:11:51.140Z,101583.91
2023-05-24T02:14:20.139Z,101584.19
2023-05-24T02:16:47.718Z,101595.53
2023-05-24T02:19:14.826Z,101599.19
2023-05-24T02:21:41.926Z,101607.31
2023-05-24T02:24:16.200Z,101608.97
2023-05-24T02:26:43.167Z,101612.22
2023-05-24T02:29:11.699Z,101615.16
2023-05-24T02:31:39.526Z,101616.50
2023-05-24T02:34:12.476Z,101617.19
2023-05-24T02:36:40.592Z,101623.78
2023-05-24T02:39:08.425Z,101630.09
2023-05-24T02:41:38.915Z,101629.41
2023-05-24T02:44:08.607Z,101636.13
2023-05-24T02:46:40.242Z,101649.56
2023-05-24T02:49:07.912Z,101647.88
2023-05-24T02:51:37.864Z,101639.47
2023-05-24T02:54:05.404Z,101646.91
2023-05-24T02:56:32.538Z,101648.72
2023-05-24T02:58:59.274Z,101651.81
2023-05-24T03:01:27.562Z,101645.34
2023-05-24T03:03:58.640Z,101655.59
2023-05-24T03:06:26.653Z,101661.91
2023-05-24T03:08:53.842Z,101656.28
2023-05-24T03:11:22.929Z,101656.44
2023-05-24T03:13:50.542Z,101661.31
2023-05-24T03:16:18.738Z,101663.28
2023-05-24T03:18:50.861Z,101672.97
2023-05-24T03:21:21.156Z,101686.84
2023-05-24T03:23:49.392Z,101688.63
2023-05-24T03:26:17.169Z,101686.97
2023-05-24T03:28:46.148Z,101682.22
2023-05-24T03:31:44.886Z,101688.78
2023-05-24T03:34:20.596Z,101696.38
2023-05-24T03:37:18.193Z,101701.94
2023-05-24T03:39:49.487Z,101710.78
2023-05-24T03:43:09.668Z,101715.00
2023-05-24T03:45:49.362Z,101725.38
2023-05-24T03:48:30.051Z,101720.91
2023-05-24T03:51:12.033Z,101727.63
2023-05-24T03:53:44.802Z,101726.19
2023-05-24T03:56:19.034Z,101733.75
2023-05-24T03:59:10.343Z,101739.78
2023-05-24T04:01:41.891Z,101744.84
2023-05-24T04:04:10.695Z,101743.84
2023-05-24T04:06:54.847Z,101749.88
2023-05-24T04:09:37.396Z,101758.84
2023-05-24T04:12:28.438Z,101762.03
2023-05-24T04:15:24.218Z,101755.31
2023-05-24T04:17:57.484Z,101754.16
2023-05-24T04:26:02.722Z,101773.22
2023-05-24T04:28:29.970Z,101857.94
2023-05-24T04:30:58.360Z,101866.50
2023-05-24T04:33:25.512Z,101879.91
2023-05-24T04:35:53.671Z,101881.41
2023-05-24T04:38:22.139Z,101890.78
2023-05-24T04:40:52.706Z,101893.41
2023-05-24T04:43:24.703Z,101895.75
2023-05-24T04:45:53.222Z,101913.47
2023-05-24T04:48:34.348Z,101930.88
2023-05-24T04:53:47.366Z,101936.44
2023-05-24T04:56:15.130Z,101938.22
2023-05-24T04:58:46.919Z,101944.13
2023-05-24T05:01:14.751Z,101947.91
2023-05-24T05:03:42.812Z,101953.66
2023-05-24T05:06:10.673Z,101957.13
2023-05-24T05:08:38.574Z,101977.94
2023-05-24T05:11:05.838Z,101988.00
2023-05-24T05:13:33.184Z,102014.69
2023-05-24T05:16:00.316Z,102019.19
2023-05-24T05:18:27.129Z,102041.38
2023-05-24T05:20:54.907Z,102068.44
2023-05-24T05:23:21.933Z,102075.38
2023-05-24T05:25:49.337Z,102097.47
2023-05-24T05:28:16.702Z,102078.59
2023-05-24T05:30:43.856Z,102063.13
2023-05-24T05:33:10.896Z,102040.47
2023-05-24T05:35:40.177Z,102005.59
2023-05-24T05:38:07.813Z,101949.41
2023-05-24T05:40:35.733Z,101841.13
2023-05-24T05:43:03.259Z,101758.69
2023-05-24T05:45:30.609Z,101719.28
2023-05-24T05:47:57.624Z,101668.34
2023-05-24T05:50:24.610Z,101632.88
2023-05-24T05:52:51.376Z,101557.38
2023-05-24T05:55:18.200Z,101387.28
2023-05-24T05:57:45.087Z,101156.78
2023-05-24T06:00:12.651Z,101046.94
2023-05-24T06:02:39.603Z,100978.44
2023-05-24T06:05:07.151Z,100902.94
2023-05-24T06:07:36.494Z,100867.91
2023-05-24T06:10:04.968Z,100852.59
2023-05-24T06:12:32.316Z,100862.78
2023-05-24T06:15:00.326Z,100838.56
2023-05-24T06:17:28.474Z,100836.50
2023-05-24T06:19:56.525Z,100820.97
2023-05-24T06:22:24.185Z,100812.91
2023-05-24T06:24:53.150Z,100825.13
2023-05-24T06:27:20.333Z,100803.41
2023-05-24T06:29:48.705Z,100787.19
2023-05-24T06:32:15.609Z,100795.81
2023-05-24T06:34:43.359Z,100771.22
2023-05-24T06:37:10.510Z,100727.19
2023-05-24T06:39:38.424Z,100740.66
2023-05-24T06:42:06.382Z,100721.19
2023-05-24T06:44:37.330Z,100713.16
2023-05-24T06:47:06.426Z,100692.63
2023-05-24T06:49:33.754Z,100718.81
2023-05-24T06:52:01.588Z,100700.38
2023-05-24T06:54:29.771Z,100695.38
2023-05-24T06:56:58.033Z,100673.13
2023-05-24T06:59:25.999Z,100661.94
2023-05-24T07:01:59.519Z,100656.97
2023-05-24T07:04:30.678Z,100663.75
2023-05-24T07:06:58.653Z,100659.38
2023-05-24T07:09:26.256Z,100663.06
2023-05-24T07:11:54.297Z,100663.13
2023-05-24T07:14:23.606Z,100662.53
2023-05-24T07:16:50.687Z,100659.38
2023-05-24T07:19:17.885Z,100656.13
2023-05-24T07:21:44.882Z,100646.41
2023-05-24T07:24:14.769Z,100655.63
2023-05-24T07:26:43.552Z,100656.94
2023-05-24T07:29:10.866Z,100658.59
2023-05-24T07:31:38.545Z,100667.69
2023-05-24T07:34:06.227Z,100664.34
2023-05-24T07:36:34.923Z,100678.03
2023-05-24T07:39:05.519Z,100686.31
2023-05-24T07:41:33.654Z,100690.84
2023-05-24T07:44:01.395Z,100693.09
2023-05-24T07:46:28.530Z,100695.94
2023-05-24T07:48:58.634Z,100697.94
2023-05-24T07:51:27.515Z,100689.81
2023-05-24T07:53:54.891Z,100687.13
2023-05-24T07:56:24.124Z,100692.50
2023-05-24T07:58:51.996Z,100685.88
2023-05-24T08:01:21.526Z,100684.53
2023-05-24T08:03:48.952Z,100682.34
2023-05-24T08:06:19.311Z,100685.97
2023-05-24T08:08:47.755Z,100674.66
2023-05-24T08:11:15.701Z,100683.00
2023-05-24T08:13:44.552Z,100676.41
2023-05-24T08:16:12.606Z,100685.69
2023-05-24T08:18:40.578Z,100692.84
2023-05-24T08:21:08.961Z,100699.09
2023-05-24T08:23:36.419Z,100707.78
2023-05-24T08:26:03.462Z,100720.81
2023-05-24T08:28:34.030Z,100734.19
2023-05-24T08:31:01.682Z,100726.50
2023-05-24T08:33:29.875Z,100729.84
2023-05-24T08:35:57.672Z,100731.06
2023-05-24T08:38:25.143Z,100720.69
2023-05-24T08:40:54.804Z,100712.94
2023-05-24T08:43:21.973Z,100722.34
2023-05-24T08:45:49.444Z,100727.97
2023-05-24T08:48:18.264Z,100729.44
2023-05-24T08:50:45.956Z,100730.91
2023-05-24T08:53:13.972Z,100732.56
2023-05-24T08:55:45.158Z,100731.69
2023-05-24T08:58:12.482Z,100735.16
2023-05-24T09:00:40.072Z,100736.03
2023-05-24T09:03:10.069Z,100727.50
2023-05-24T09:05:37.649Z,100724.97
2023-05-24T09:08:04.790Z,100725.94
2023-05-24T09:10:45.035Z,100721.47
2023-05-24T09:13:21.217Z,100728.28
2023-05-24T09:15:54.426Z,100732.44
2023-05-24T09:18:22.342Z,100728.25
2023-05-24T09:20:50.298Z,100732.16
2023-05-24T09:23:17.807Z,100730.16
2023-05-24T09:25:46.144Z,100741.03
2023-05-24T09:28:17.821Z,100748.38
2023-05-24T09:30:46.682Z,100751.78
2023-05-24T09:33:14.250Z,100756.56
2023-05-24T09:35:44.557Z,100768.19
2023-05-24T09:38:19.514Z,100777.16
2023-05-24T09:40:47.585Z,100777.31
2023-05-24T09:43:15.084Z,100773.41
2023-05-24T09:45:49.417Z,100773.19
2023-05-24T09:48:18.027Z,100763.66
2023-05-24T09:50:47.804Z,100761.75
2023-05-24T09:53:19.452Z,100744.97
2023-05-24T09:55:47.798Z,100757.72
2023-05-24T09:58:16.107Z,100750.47
2023-05-24T10:00:46.170Z,100753.78
2023-05-24T10:03:15.227Z,100753.16
2023-05-24T10:05:44.827Z,100745.84
2023-05-24T10:08:12.970Z,100747.13
2023-05-24T10:10:40.833Z,100745.84
2023-05-24T10:13:08.230Z,100754.03
2023-05-24T10:15:35.017Z,100759.78
2023-05-24T10:18:02.672Z,100757.06
2023-05-24T10:20:30.388Z,100764.03
2023-05-24T10:23:02.230Z,100769.00
2023-05-24T10:25:30.058Z,100766.13
2023-05-24T10:28:10.598Z,100765.41
2023-05-24T10:30:43.158Z,100769.34
2023-05-24T10:33:13.453Z,100777.44
2023-05-24T10:35:41.991Z,100780.34
2023-05-24T10:38:10.376Z,100799.53
2023-05-24T10:40:42.389Z,100809.75
2023-05-24T10:43:13.001Z,100821.00
2023-05-24T10:45:41.609Z,100814.19
2023-05-24T10:48:15.924Z,100819.38
2023-05-24T10:50:44.941Z,100820.44
2023-05-24T10:53:16.406Z,100820.66
2023-05-24T10:55:55.889Z,100813.97
2023-05-24T10:58:59.792Z,100814.97
2023-05-24T11:01:31.009Z,100807.16
2023-05-24T11:04:11.324Z,100817.75
2023-05-24T11:07:06.194Z,100818.19
2023-05-24T11:09:33.613Z,100819.69
2023-05-24T11:12:04.022Z,100826.28
2023-05-24T11:14:32.178Z,100815.59
2023-05-24T11:17:00.366Z,100827.00
2023-05-24T11:19:37.835Z,100826.28
2023-05-24T11:22:07.349Z,100830.72
2023-05-24T11:24:35.282Z,100839.53
2023-05-24T11:27:04.611Z,100844.19
2023-05-24T11:29:33.925Z,100841.91
2023-05-24T11:32:05.414Z,100850.84
2023-05-24T11:34:33.919Z,100859.56
2023-05-24T11:37:02.737Z,100868.47
2023-05-24T11:39:34.673Z,100883.22
2023-05-24T11:42:05.381Z,100895.16
2023-05-24T11:44:33.538Z,100908.63
2023-05-24T11:47:02.315Z,100919.09
2023-05-24T11:49:30.282Z,100934.31
2023-05-24T11:51:59.502Z,100946.06
2023-05-24T11:54:34.850Z,100951.78
2023-05-24T11:57:02.377Z,100957.38
2023-05-24T11:59:30.698Z,100976.03
2023-05-24T12:02:03.601Z,101004.56
2023-05-24T12:04:34.948Z,101046.34
2023-05-24T12:07:02.135Z,101094.09
2023-05-24T12:09:30.312Z,101128.75
2023-05-24T12:12:02.511Z,101139.28
2023-05-24T12:14:31.468Z,101165.25
2023-05-24T12:16:59.696Z,101196.34
2023-05-24T12:19:37.347Z,101240.09
2023-05-24T12:22:07.806Z,101254.63
2023-05-24T12:24:35.851Z,101271.47
2023-05-24T12:27:08.020Z,101301.94
2023-05-24T12:29:40.978Z,101308.13
2023-05-24T12:32:15.432Z,101323.72
2023-05-24T12:38:34.317Z,101358.69
2023-05-24T12:41:13.006Z,101376.47
2023-05-24T12:43:44.822Z,101380.28
2023-05-24T12:46:32.177Z,101378.53
2023-05-24T12:49:25.833Z,101367.91
2023-05-24T12:51:58.801Z,101366.25
2023-05-24T12:54:26.932Z,101359.44
2023-05-24T12:56:56.748Z,101357.59
2023-05-24T12:59:23.988Z,101357.72
2023-05-24T13:01:52.105Z,101364.72
2023-05-24T13:04:22.025Z,101356.44
2023-05-24T13:06:49.394Z,101359.59
2023-05-24T13:09:21.502Z,101362.09
2023-05-24T13:11:48.917Z,101353.81
2023-05-24T13:14:17.150Z,101358.69
2023-05-24T13:16:45.437Z,101362.59
2023-05-24T13:19:12.966Z,101372.31
2023-05-24T13:21:40.519Z,101374.38
2023-05-24T13:24:08.568Z,101371.47
2023-05-24T13:26:37.715Z,101368.78
2023-05-24T13:31:38.789Z,101372.94
2023-05-24T13:34:06.393Z,101380.00
2023-05-24T13:36:33.629Z,101387.03
2023-05-24T13:39:13.480Z,101385.53
2023-05-24T13:41:42.545Z,101394.81
2023-05-24T13:44:10.185Z,101388.72
2023-05-24T13:46:40.334Z,101390.25
2023-05-24T13:49:09.148Z,101397.16
2023-05-24T13:51:36.636Z,101407.94
2023-05-24T13:54:03.613Z,101407.88
2023-05-24T14:03:17.468Z,101448.56
2023-05-24T14:10:01.716Z,101509.69
2023-05-24T14:12:32.049Z,101519.47
2023-05-24T14:15:49.906Z,101548.78
2023-05-24T14:18:16.981Z,101553.06
2023-05-24T14:20:44.153Z,101554.34
2023-05-24T14:23:12.211Z,101553.25
2023-05-24T14:25:40.784Z,101553.81
2023-05-24T14:28:11.437Z,101545.56
2023-05-24T14:30:39.850Z,101553.94
2023-05-24T14:33:08.610Z,101547.38
2023-05-24T14:35:40.430Z,101538.72
2023-05-24T14:38:09.741Z,101531.25
2023-05-24T14:40:37.976Z,101521.00
2023-05-24T14:43:06.222Z,101524.34
2023-05-24T14:45:33.889Z,101511.03
2023-05-24T14:48:01.507Z,101502.59
2023-05-24T14:50:28.527Z,101510.81
2023-05-24T14:52:55.900Z,101520.97
2023-05-24T14:55:23.299Z,101509.31
2023-05-24T14:57:51.439Z,101500.38
2023-05-24T15:00:22.685Z,101493.09
2023-05-24T15:02:51.004Z,101491.50
2023-05-24T15:05:20.588Z,101491.50
2023-05-24T15:07:47.458Z,101504.88
2023-05-24T15:10:14.566Z,101495.78
2023-05-24T15:12:45.374Z,101491.31
2023-05-24T15:15:14.644Z,101498.88
2023-05-24T15:18:09.989Z,101501.19
2023-05-24T15:20:39.353Z,101493.63
2023-05-24T15:23:06.382Z,101491.31
2023-05-24T15:25:33.633Z,101491.81
2023-05-24T15:28:00.734Z,101474.97
2023-05-24T15:30:27.812Z,101471.41
2023-05-24T15:32:54.901Z,101473.38
2023-05-24T15:35:21.772Z,101467.47
2023-05-24T15:37:48.598Z,101460.81
2023-05-24T15:40:16.230Z,101448.34
2023-05-24T15:42:42.957Z,101446.66
2023-05-24T15:45:10.659Z,101447.28
2023-05-24T15:47:40.146Z,101458.22
2023-05-24T15:50:08.565Z,101462.59
2023-05-24T15:52:36.814Z,101453.63
2023-05-24T15:55:04.375Z,101447.91
2023-05-24T15:57:31.740Z,101447.94
2023-05-24T15:59:58.634Z,101461.63
2023-05-24T16:02:25.841Z,101466.84
2023-05-24T16:04:52.692Z,101474.19
2023-05-24T16:07:20.292Z,101471.56
2023-05-24T16:09:47.066Z,101469.16
2023-05-24T16:12:17.013Z,101476.38
2023-05-24T16:14:46.601Z,101483.44
2023-05-24T16:17:13.728Z,101494.44
2023-05-24T16:19:40.720Z,101502.91
2023-05-24T16:22:07.934Z,101506.31
2023-05-24T16:24:34.866Z,101508.38
2023-05-24T16:27:02.129Z,101518.09
2023-05-24T16:29:28.850Z,101517.88
2023-05-24T16:31:55.637Z,101524.63
2023-05-24T16:34:24.661Z,101530.09
2023-05-24T16:36:51.515Z,101525.72
2023-05-24T16:39:18.416Z,101512.63
2023-05-24T16:41:45.328Z,101509.53
2023-05-24T16:44:17.520Z,101498.91
2023-05-24T16:46:45.547Z,101496.81
2023-05-24T16:49:13.597Z,101505.34
2023-05-24T16:51:40.614Z,101515.13
2023-05-24T16:54:09.603Z,101491.78
2023-05-24T16:56:38.367Z,101476.69
2023-05-24T16:59:05.741Z,101476.28
2023-05-24T17:01:32.661Z,101473.06
2023-05-24T17:03:59.503Z,101449.94
2023-05-24T17:06:26.235Z,101444.69
2023-05-24T17:08:52.860Z,101448.22
2023-05-24T17:11:19.945Z,101454.56
2023-05-24T17:13:46.941Z,101459.56
2023-05-24T17:16:14.193Z,101461.72
2023-05-24T17:18:42.443Z,101459.25
2023-05-24T17:21:09.904Z,101463.06
2023-05-24T17:23:37.519Z,101460.84
2023-05-24T17:26:04.677Z,101460.31
2023-05-24T17:28:31.503Z,101465.41
2023-05-24T17:31:00.422Z,101476.94
2023-05-24T17:33:29.334Z,101485.38
2023-05-24T17:35:57.039Z,101485.25
2023-05-24T17:38:25.189Z,101484.03
2023-05-24T17:40:59.885Z,101487.06
2023-05-24T17:43:32.687Z,101491.03
2023-05-24T17:46:07.035Z,101494.75
2023-05-24T17:48:38.188Z,101504.88
2023-05-24T17:51:07.028Z,101505.81
2023-05-24T17:53:35.814Z,101507.59
2023-05-24T17:56:04.661Z,101503.34
2023-05-24T17:58:32.967Z,101492.22
2023-05-24T18:01:00.266Z,101487.22
2023-05-24T18:03:27.326Z,101483.88
2023-05-24T18:05:55.196Z,101469.88
2023-05-24T18:08:23.208Z,101471.66
2023-05-24T18:10:50.168Z,101472.81
2023-05-24T18:13:17.679Z,101474.53
2023-05-24T18:15:44.982Z,101484.34
2023-05-24T18:18:12.130Z,101482.94
2023-05-24T18:20:39.062Z,101497.50
2023-05-24T18:23:06.009Z,101510.97
2023-05-24T18:25:32.669Z,101524.00
2023-05-24T18:27:59.389Z,101528.44
2023-05-24T18:30:26.056Z,101525.56
2023-05-24T18:33:04.971Z,101534.66
2023-05-24T18:35:39.235Z,101547.16
2023-05-24T18:38:05.973Z,101565.84
2023-05-24T18:40:33.279Z,101570.75
2023-05-24T18:43:00.274Z,101580.94
2023-05-24T18:45:27.444Z,101594.00
2023-05-24T18:47:54.329Z,101600.78
2023-05-24T18:50:23.507Z,101613.44
2023-05-24T18:52:50.500Z,101625.66
2023-05-24T18:55:17.246Z,101630.28
2023-05-24T18:57:44.017Z,101643.22
2023-05-24T19:00:11.734Z,101644.59
2023-05-24T19:02:39.567Z,101659.47
2023-05-24T19:05:08.627Z,101666.91
2023-05-24T19:07:36.041Z,101677.31
2023-05-24T19:10:03.269Z,101679.69
2023-05-24T19:12:30.336Z,101699.47
2023-05-24T19:14:57.172Z,101702.19
2023-05-24T19:17:25.023Z,101702.53
2023-05-24T19:19:52.113Z,101711.44
2023-05-24T19:22:19.052Z,101723.03
2023-05-24T19:24:45.747Z,101730.06
2023-05-24T19:27:12.383Z,101733.25
2023-05-24T19:29:39.956Z,101738.59
2023-05-24T19:32:13.741Z,101747.97
2023-05-24T19:34:42.336Z,101755.53
2023-05-24T19:37:09.682Z,101760.03
2023-05-24T19:39:37.229Z,101761.22
2023-05-24T19:42:04.435Z,101755.53
2023-05-24T19:44:31.172Z,101759.56
2023-05-24T19:46:57.897Z,101769.56
2023-05-24T19:49:24.508Z,101758.69
2023-05-24T19:51:52.262Z,101766.19
2023-05-24T19:54:18.995Z,101771.56
2023-05-24T19:56:49.755Z,101777.44
2023-05-24T19:59:19.527Z,101784.69
2023-05-24T20:01:46.217Z,101787.50
2023-05-24T20:04:13.135Z,101797.41
2023-05-24T20:06:40.630Z,101801.75
2023-05-24T20:09:07.292Z,101809.31
2023-05-24T20:11:34.721Z,101814.69
2023-05-24T20:14:01.835Z,101826.56
2023-05-24T20:16:29.787Z,101820.00
2023-05-24T20:18:56.537Z,101829.38
2023-05-24T20:21:23.216Z,101829.38
2023-05-24T20:23:55.213Z,101827.91
2023-05-24T20:26:23.327Z,101832.59
2023-05-24T20:28:52.244Z,101830.56
2023-05-24T20:31:19.086Z,101832.25
2023-05-24T20:33:46.066Z,101831.38
2023-05-24T20:36:14.915Z,101834.84
2023-05-24T20:38:41.683Z,101824.22
2023-05-24T20:41:08.435Z,101814.38
2023-05-24T20:43:35.228Z,101813.13
2023-05-24T20:46:02.109Z,101809.47
2023-05-24T20:48:29.091Z,101804.75
2023-05-24T20:50:55.880Z,101792.69
2023-05-24T20:53:22.589Z,101781.16
2023-05-24T20:55:49.320Z,101766.66
2023-05-24T20:58:17.295Z,101763.25
2023-05-24T21:00:43.966Z,101747.97
2023-05-24T21:03:10.887Z,101737.19
2023-05-24T21:05:39.720Z,101732.78
2023-05-24T21:08:06.565Z,101708.53
2023-05-24T21:10:33.355Z,101703.28
2023-05-24T21:13:00.187Z,101681.38
2023-05-24T21:15:27.020Z,101674.69
2023-05-24T21:17:53.673Z,101654.63
2023-05-24T21:20:20.641Z,101645.13
2023-05-24T21:22:52.060Z,101630.91
2023-05-24T21:25:18.657Z,101620.72
2023-05-24T21:27:45.630Z,101613.16
2023-05-24T21:30:12.784Z,101601.13
2023-05-24T21:32:39.640Z,101588.06
2023-05-24T21:35:07.053Z,101568.69
2023-05-24T21:37:36.102Z,101551.78
2023-05-24T21:40:03.040Z,101545.44
2023-05-24T21:42:30.603Z,101520.41
2023-05-24T21:44:58.019Z,101512.22
2023-05-24T21:47:24.682Z,101489.50
2023-05-24T21:49:52.030Z,101468.09
2023-05-24T21:52:22.033Z,101437.53
2023-05-24T21:54:48.898Z,101426.69
2023-05-24T21:57:16.040Z,101402.81
2023-05-24T21:59:42.804Z,101390.63
2023-05-24T22:02:09.682Z,101368.44
2023-05-24T22:04:36.346Z,101356.59
2023-05-24T22:07:03.035Z,101345.38
2023-05-24T22:09:29.725Z,101326.34
2023-05-24T22:11:56.410Z,101317.13
2023-05-24T22:14:23.059Z,101300.78
2023-05-24T22:16:50.809Z,101294.09
2023-05-24T22:19:28.570Z,101284.06
2023-05-24T22:22:05.141Z,101270.22
2023-05-24T22:24:31.948Z,101263.69
2023-05-24T22:27:01.086Z,101250.34
2023-05-24T22:29:28.014Z,101242.13
2023-05-24T22:31:54.767Z,101232.13
2023-05-24T22:34:30.824Z,101227.47
2023-05-24T22:36:58.806Z,101211.97
2023-05-24T22:39:25.445Z,101194.63
2023-05-24T22:41:52.981Z,101194.63
2023-05-24T22:44:20.318Z,101188.97
2023-05-24T22:46:53.097Z,101177.09
2023-05-24T22:49:20.278Z,101168.59
2023-05-24T22:51:48.572Z,101174.09
2023-05-24T22:54:15.796Z,101170.75
2023-05-24T22:56:44.202Z,101164.09
2023-05-24T22:59:11.801Z,101151.09
2023-05-24T23:01:39.184Z,101149.44
2023-05-24T23:04:19.506Z,101147.09
2023-05-24T23:06:47.421Z,101161.47
2023-05-24T23:09:14.125Z,101171.28
2023-05-24T23:11:43.053Z,101148.94
2023-05-24T23:14:11.130Z,101156.13
2023-05-24T23:16:45.511Z,101147.09
2023-05-24T23:19:13.819Z,101137.94
2023-05-24T23:21:42.222Z,101147.28
2023-05-24T23:24:17.210Z,101182.78
2023-05-24T23:26:44.078Z,101213.94
2023-05-24T23:29:11.831Z,102140.06
2023-05-24T23:31:38.565Z,102152.38
2023-05-24T23:34:05.773Z,102156.31
2023-05-24T23:36:32.476Z,102160.34
2023-05-24T23:38:59.147Z,102166.16
2023-05-24T23:41:26.585Z,102165.88
2023-05-24T23:43:53.911Z,102170.47
2023-05-24T23:46:20.874Z,102170.03
2023-05-24T23:48:48.696Z,102170.31
2023-05-24T23:51:15.867Z,102171.44
2023-05-24T23:53:42.490Z,102181.69
2023-05-24T23:56:09.079Z,102175.22
2023-05-24T23:58:39.645Z,102171.28
